Time;durP1;ratioP1;P1;durP2;ratioP2;P2;SDS_P1;SDS_P2;PMS_P1;PMS_P2;Temp;Humidity;BMP_temperature;BMP_pressure;BME280_temperature;BME280_humidity;BME280_pressure;Samples;Min_cycle;Max_cycle;Signal;HPM_P1;HPM_P2
2021/06/24 00:00:46;;;;;;;;;;;;;;;;;;2137650;67;1325;-68
2021/06/24 00:03:12;;;;;;;;;;;;;;;;;;2134458;67;1166;-68
2021/06/24 00:05:37;;;;;;;;;;;;;;;;;;2139677;66;1270;-68
2021/06/24 00:08:02;;;;;;;;;;;;;;;;;;2135383;59;1440;-68
2021/06/24 00:10:28;;;;;;;;;;;;;;;;;;2135245;67;1239;-68
2021/06/24 00:12:53;;;;;;;;;;;;;;;;;;2135097;66;1226;-68
2021/06/24 00:15:18;;;;;;;;;;;;;;;;;;2136249;59;1253;-68
2021/06/24 00:17:43;;;;;;;;;;;;;;;;;;2135140;67;1940;-68
2021/06/24 00:20:08;;;;;;;;;;;;;;;;;;2136100;66;1255;-68
2021/06/24 00:22:34;;;;;;;;;;;;;;;;;;2135577;66;1877;-68
2021/06/24 00:24:59;;;;;;;;;;;;;;;;;;2135484;59;1190;-68
2021/06/24 00:27:24;;;;;;;;;;;;;;;;;;2135806;66;1156;-68
2021/06/24 00:29:49;;;;;;;;;;;;;;;;;;2137928;66;1195;-68
2021/06/24 00:32:14;;;;;;;;;;;;;;;;;;2138227;66;1370;-68
2021/06/24 00:34:40;;;;;;;;;;;;;;;;;;2137769;67;1148;-68
2021/06/24 00:37:05;;;;;;;;;;;;;;;;;;2137576;66;1987;-68
2021/06/24 00:39:30;;;;;;;;;;;;;;;;;;2135054;59;1161;-68
2021/06/24 00:41:56;;;;;;;;;;;;;;;;;;2137479;67;1178;-68
2021/06/24 00:44:21;;;;;;;;;;;;;;;;;;2134988;67;1234;-68
2021/06/24 00:46:46;;;;;;;;;;;;;;;;;;2137928;59;1333;-68
2021/06/24 00:49:12;;;;;;;;;;;;;;;;;;2135177;66;1101;-67
2021/06/24 00:51:37;;;;;;;;;;;;;;;;;;2137684;66;1289;-68
2021/06/24 00:54:02;;;;;;;;;;;;;;;;;;2134831;66;1207;-67
2021/06/24 00:56:30;;;;;;;;;;;;;;;;;;2136926;67;1920;-67
2021/06/24 00:58:55;;;;;;;;;;;;;;;;;;2135463;67;1145;-68
2021/06/24 01:01:20;;;;;;;;;;;;;;;;;;2135989;67;1259;-68
2021/06/24 01:03:45;;;;;;;;;;;;;;;;;;2137096;66;1176;-68
2021/06/24 01:06:11;;;;;;;;;;;;;;;;;;2135863;66;1170;-68
2021/06/24 01:08:36;;;;;;;;;;;;;;;;;;2137793;66;1454;-68
2021/06/24 01:11:01;;;;;;;;;;;;;;;;;;2140410;59;2378;-67
2021/06/24 01:13:27;;;;;;;;;;;;;;;;;;2134752;59;1319;-69
2021/06/24 01:15:52;;;;;;;;;;;;;;;;;;2136301;59;1929;-68
2021/06/24 01:18:18;;;;;;;;;;;;;;;;;;2135296;67;1065;-67
2021/06/24 01:20:43;;;;;;;;;;;;;;;;;;2136536;66;1964;-68
2021/06/24 01:23:08;;;;;;;;;;;;;;;;;;2135666;67;1170;-66
2021/06/24 01:25:34;;;;;;;;;;;;;;;;;;2135108;67;1242;-68
2021/06/24 01:28:01;;;;;;;;;;;;;;;;;;2136480;59;1236;-67
2021/06/24 01:30:27;;;;;;;;;;;;;;;;;;2134971;59;1484;-65
2021/06/24 01:32:53;;;;;;;;;;;;;;;;;;2135168;67;1207;-68
2021/06/24 01:35:19;;;;;;;;;;;;;;;;;;2149479;66;1242;-66
2021/06/24 01:37:44;;;;;;;;;;;;;;;;;;2134527;67;1982;-68
2021/06/24 01:40:10;;;;;;;;;;;;;;;;;;2135150;67;1234;-68
2021/06/24 01:42:35;;;;;;;;;;;;;;;;;;2135506;66;1217;-67
2021/06/24 01:45:00;;;;;;;;;;;;;;;;;;2134896;59;1235;-67
2021/06/24 01:47:25;;;;;;;;;;;;;;;;;;2136528;66;2004;-67
2021/06/24 01:49:51;;;;;;;;;;;;;;;;;;2139298;66;1206;-66
2021/06/24 01:52:16;;;;;;;;;;;;;;;;;;2141819;66;1277;-67
2021/06/24 01:54:45;;;;;;;;;;;;;;;;;;2137682;59;1899;-67
2021/06/24 01:57:15;;;;;;;;;;;;;;;;;;2137924;66;1990;-67
2021/06/24 01:59:41;;;;;;;;;;;;;;;;;;2137429;67;1286;-67
2021/06/24 02:02:06;;;;;;;;;;;;;;;;;;2139734;59;1233;-67
2021/06/24 02:04:31;;;;;;;;;;;;;;;;;;2136515;66;1324;-67
2021/06/24 02:06:56;;;;;;;;;;;;;;;;;;2136111;59;1359;-67
2021/06/24 02:09:21;;;;;;;;;;;;;;;;;;2134489;59;1219;-67
2021/06/24 02:11:47;;;;;;;;;;;;;;;;;;2135491;67;1181;-67
2021/06/24 02:14:12;;;;;;;;;;;;;;;;;;2134904;59;1302;-67
2021/06/24 02:16:37;;;;;;;;;;;;;;;;;;2135631;59;1919;-67
2021/06/24 02:19:02;;;;;;;;;;;;;;;;;;2135568;67;1127;-65
2021/06/24 02:21:28;;;;;;;;;;;;;;;;;;2134608;66;1224;-67
2021/06/24 02:23:53;;;;;;;;;;;;;;;;;;2136271;67;1310;-68
2021/06/24 02:26:18;;;;;;;;;;;;;;;;;;2134330;59;1790;-67
2021/06/24 02:28:43;;;;;;;;;;;;;;;;;;2135824;66;1223;-67
2021/06/24 02:31:09;;;;;;;;;;;;;;;;;;2137133;66;1271;-66
2021/06/24 02:33:34;;;;;;;;;;;;;;;;;;2139396;66;1207;-66
2021/06/24 02:35:59;;;;;;;;;;;;;;;;;;2140238;66;1927;-68
2021/06/24 02:38:25;;;;;;;;;;;;;;;;;;2135064;66;1155;-68
2021/06/24 02:40:50;;;;;;;;;;;;;;;;;;2136988;66;1231;-67
2021/06/24 02:43:16;;;;;;;;;;;;;;;;;;2142024;66;1228;-68
2021/06/24 02:45:42;;;;;;;;;;;;;;;;;;2135411;67;1143;-66
2021/06/24 02:48:08;;;;;;;;;;;;;;;;;;2136469;59;1450;-68
2021/06/24 02:50:33;;;;;;;;;;;;;;;;;;2134326;67;1049;-68
2021/06/24 02:52:58;;;;;;;;;;;;;;;;;;2135917;67;1251;-68
2021/06/24 02:55:30;;;;;;;;;;;;;;;;;;2134639;66;1037;-67
2021/06/24 02:57:55;;;;;;;;;;;;;;;;;;2136802;67;1987;-67
2021/06/24 03:00:21;;;;;;;;;;;;;;;;;;2136069;67;1213;-70
2021/06/24 03:02:46;;;;;;;;;;;;;;;;;;2136864;67;1205;-70
2021/06/24 03:05:11;;;;;;;;;;;;;;;;;;2136447;67;1141;-68
2021/06/24 03:07:36;;;;;;;;;;;;;;;;;;2136381;66;1036;-70
2021/06/24 03:10:02;;;;;;;;;;;;;;;;;;2146588;66;1164;-70
2021/06/24 03:12:27;;;;;;;;;;;;;;;;;;2136739;58;1206;-69
2021/06/24 03:14:52;;;;;;;;;;;;;;;;;;2136302;59;1353;-66
2021/06/24 03:17:18;;;;;;;;;;;;;;;;;;2135907;59;1926;-68
2021/06/24 03:19:43;;;;;;;;;;;;;;;;;;2137002;59;1208;-69
2021/06/24 03:22:08;;;;;;;;;;;;;;;;;;2135049;67;1223;-72
2021/06/24 03:24:33;;;;;;;;;;;;;;;;;;2137536;60;1171;-65
2021/06/24 03:26:59;;;;;;;;;;;;;;;;;;2135490;66;1142;-69
2021/06/24 03:29:24;;;;;;;;;;;;;;;;;;2136723;59;1261;-69
2021/06/24 03:31:49;;;;;;;;;;;;;;;;;;2135430;66;1272;-66
2021/06/24 03:34:14;;;;;;;;;;;;;;;;;;2135399;66;1021;-68
2021/06/24 03:36:40;;;;;;;;;;;;;;;;;;2136649;67;1932;-66
2021/06/24 03:39:05;;;;;;;;;;;;;;;;;;2136543;67;1152;-71
2021/06/24 03:41:30;;;;;;;;;;;;;;;;;;2135110;66;1283;-66
2021/06/24 03:43:56;;;;;;;;;;;;;;;;;;2136538;67;1211;-69
2021/06/24 03:46:24;;;;;;;;;;;;;;;;;;2135451;67;1143;-69
2021/06/24 03:48:50;;;;;;;;;;;;;;;;;;2140368;66;1215;-66
2021/06/24 03:51:15;;;;;;;;;;;;;;;;;;2141823;66;1194;-70
2021/06/24 03:53:41;;;;;;;;;;;;;;;;;;2135848;67;1120;-70
2021/06/24 03:56:06;;;;;;;;;;;;;;;;;;2135657;59;2504;-67
2021/06/24 03:58:32;;;;;;;;;;;;;;;;;;2137428;67;1151;-71
2021/06/24 04:00:57;;;;;;;;;;;;;;;;;;2137295;66;1121;-69
2021/06/24 04:03:23;;;;;;;;;;;;;;;;;;2135912;67;1245;-66
2021/06/24 04:05:48;;;;;;;;;;;;;;;;;;2135536;66;1170;-68
2021/06/24 04:08:13;;;;;;;;;;;;;;;;;;2136484;59;1274;-67
2021/06/24 04:10:38;;;;;;;;;;;;;;;;;;2137873;66;1241;-69
2021/06/24 04:13:04;;;;;;;;;;;;;;;;;;2135174;67;1198;-67
2021/06/24 04:15:30;;;;;;;;;;;;;;;;;;2135871;59;1294;-67
2021/06/24 04:17:55;;;;;;;;;;;;;;;;;;2134947;66;1937;-69
2021/06/24 04:20:21;;;;;;;;;;;;;;;;;;2137202;67;1151;-71
2021/06/24 04:22:47;;;;;;;;;;;;;;;;;;2134924;67;1269;-70
2021/06/24 04:25:13;;;;;;;;;;;;;;;;;;2137293;67;1186;-73
2021/06/24 04:27:39;;;;;;;;;;;;;;;;;;2134136;67;1163;-71
2021/06/24 04:30:05;;;;;;;;;;;;;;;;;;2141654;66;1176;-67
2021/06/24 04:32:31;;;;;;;;;;;;;;;;;;2136788;66;1412;-70
2021/06/24 04:34:56;;;;;;;;;;;;;;;;;;2138468;66;1191;-66
2021/06/24 04:37:21;;;;;;;;;;;;;;;;;;2135390;66;1926;-66
2021/06/24 04:39:46;;;;;;;;;;;;;;;;;;2136150;66;1242;-70
2021/06/24 04:42:11;;;;;;;;;;;;;;;;;;2135481;66;1637;-70
2021/06/24 04:44:37;;;;;;;;;;;;;;;;;;2135971;66;1210;-67
2021/06/24 04:47:03;;;;;;;;;;;;;;;;;;2135218;59;1277;-67
2021/06/24 04:49:28;;;;;;;;;;;;;;;;;;2135999;66;1158;-70
2021/06/24 04:51:54;;;;;;;;;;;;;;;;;;2135206;66;1173;-69
2021/06/24 04:54:19;;;;;;;;;;;;;;;;;;2135842;66;1253;-69
2021/06/24 04:56:44;;;;;;;;;;;;;;;;;;2135367;67;1929;-70
2021/06/24 04:59:10;;;;;;;;;;;;;;;;;;2135400;66;1072;-68
2021/06/24 05:01:35;;;;;;;;;;;;;;;;;;2135506;67;1190;-70
2021/06/24 05:04:00;;;;;;;;;;;;;;;;;;2135128;58;1346;-68
2021/06/24 05:06:25;;;;;;;;;;;;;;;;;;2135208;67;1144;-69
2021/06/24 05:08:51;;;;;;;;;;;;;;;;;;2148383;66;1287;-67
2021/06/24 05:11:16;;;;;;;;;;;;;;;;;;2135523;66;1252;-67
2021/06/24 05:13:41;;;;;;;;;;;;;;;;;;2136179;67;1182;-67
2021/06/24 05:16:07;;;;;;;;;;;;;;;;;;2133910;59;1927;-67
2021/06/24 05:18:33;;;;;;;;;;;;;;;;;;2134644;66;1246;-68
2021/06/24 05:20:59;;;;;;;;;;;;;;;;;;2135677;67;1234;-66
2021/06/24 05:23:25;;;;;;;;;;;;;;;;;;2134736;66;1254;-66
2021/06/24 05:25:50;;;;;;;;;;;;;;;;;;2137352;67;1226;-66
2021/06/24 05:28:15;;;;;;;;;;;;;;;;;;2135445;67;1246;-66
2021/06/24 05:30:41;;;;;;;;;;;;;;;;;;2137816;59;1536;-66
2021/06/24 05:33:06;;;;;;;;;;;;;;;;;;2134781;67;1183;-66
2021/06/24 05:35:31;;;;;;;;;;;;;;;;;;2137996;67;1154;-66
2021/06/24 05:37:57;;;;;;;;;;;;;;;;;;2137025;59;1995;-69
2021/06/24 05:40:22;;;;;;;;;;;;;;;;;;2141425;66;1347;-67
2021/06/24 05:42:48;;;;;;;;;;;;;;;;;;2145559;66;1260;-66
2021/06/24 05:45:13;;;;;;;;;;;;;;;;;;2147193;58;1784;-67
2021/06/24 05:47:38;;;;;;;;;;;;;;;;;;2137141;66;1358;-66
2021/06/24 05:50:04;;;;;;;;;;;;;;;;;;2138893;66;1340;-66
2021/06/24 05:52:29;;;;;;;;;;;;;;;;;;2137287;66;1341;-66
2021/06/24 05:54:54;;;;;;;;;;;;;;;;;;2136783;66;2265;-66
2021/06/24 05:57:19;;;;;;;;;;;;;;;;;;2136724;66;2190;-66
2021/06/24 05:59:45;;;;;;;;;;;;;;;;;;2137205;66;1368;-66
2021/06/24 06:02:10;;;;;;;;;;;;;;;;;;2136971;67;1218;-67
2021/06/24 06:04:35;;;;;;;;;;;;;;;;;;2135029;66;1380;-67
2021/06/24 06:07:00;;;;;;;;;;;;;;;;;;2137236;59;1424;-67
2021/06/24 06:09:26;;;;;;;;;;;;;;;;;;2135164;66;1171;-67
2021/06/24 06:11:51;;;;;;;;;;;;;;;;;;2135781;66;1196;-67
2021/06/24 06:14:16;;;;;;;;;;;;;;;;;;2134467;59;1177;-67
2021/06/24 06:16:45;;;;;;;;;;;;;;;;;;2136962;59;2148;-67
2021/06/24 06:19:10;;;;;;;;;;;;;;;;;;2140857;66;1412;-67
2021/06/24 06:21:35;;;;;;;;;;;;;;;;;;2137181;66;2335;-68
2021/06/24 06:24:01;;;;;;;;;;;;;;;;;;2135405;66;1960;-67
2021/06/24 06:26:27;;;;;;;;;;;;;;;;;;2134303;66;1321;-67
2021/06/24 06:28:52;;;;;;;;;;;;;;;;;;2137559;66;1476;-67
2021/06/24 06:31:18;;;;;;;;;;;;;;;;;;2143307;66;1688;-67
2021/06/24 06:33:43;;;;;;;;;;;;;;;;;;2140448;66;1045;-67
2021/06/24 06:36:08;;;;;;;;;;;;;;;;;;2140663;66;1924;-67
2021/06/24 06:38:34;;;;;;;;;;;;;;;;;;2138882;59;1823;-67
2021/06/24 06:40:59;;;;;;;;;;;;;;;;;;2140285;66;1940;-67
2021/06/24 06:43:24;;;;;;;;;;;;;;;;;;2137820;66;1472;-67
2021/06/24 06:45:50;;;;;;;;;;;;;;;;;;2137082;59;1965;-67
2021/06/24 06:48:15;;;;;;;;;;;;;;;;;;2137240;59;1295;-67
2021/06/24 06:50:41;;;;;;;;;;;;;;;;;;2137460;66;1370;-67
2021/06/24 06:53:06;;;;;;;;;;;;;;;;;;2139425;66;1213;-67
2021/06/24 06:55:32;;;;;;;;;;;;;;;;;;2135839;67;1146;-67
2021/06/24 06:57:58;;;;;;;;;;;;;;;;;;2138163;67;1931;-67
2021/06/24 07:00:24;;;;;;;;;;;;;;;;;;2146886;66;1178;-67
2021/06/24 07:02:50;;;;;;;;;;;;;;;;;;2137055;59;1871;-67
2021/06/24 07:05:15;;;;;;;;;;;;;;;;;;2136838;67;1004;-67
2021/06/24 07:07:40;;;;;;;;;;;;;;;;;;2139435;66;1363;-67
2021/06/24 07:10:05;;;;;;;;;;;;;;;;;;2139382;59;2023;-67
2021/06/24 07:12:31;;;;;;;;;;;;;;;;;;2151428;53;2047;-70
2021/06/24 07:14:56;;;;;;;;;;;;;;;;;;2147218;58;1967;-69
2021/06/24 07:17:22;;;;;;;;;;;;;;;;;;2146412;58;1922;-71
2021/06/24 07:19:47;;;;;;;;;;;;;;;;;;2146339;59;1188;-70
2021/06/24 07:22:12;;;;;;;;;;;;;;;;;;2146598;66;1226;-69
2021/06/24 07:24:37;;;;;;;;;;;;;;;;;;2146096;59;1883;-70
2021/06/24 07:27:03;;;;;;;;;;;;;;;;;;2145847;66;1186;-70
2021/06/24 07:29:28;;;;;;;;;;;;;;;;;;2145767;59;1403;-71
2021/06/24 07:31:53;;;;;;;;;;;;;;;;;;2146421;66;1188;-70
2021/06/24 07:34:18;;;;;;;;;;;;;;;;;;2146539;66;1283;-71
2021/06/24 07:36:45;;;;;;;;;;;;;;;;;;2146811;66;1927;-71
2021/06/24 07:39:11;;;;;;;;;;;;;;;;;;2144918;59;1963;-71
2021/06/24 07:41:36;;;;;;;;;;;;;;;;;;2144378;59;1767;-71
2021/06/24 07:44:01;;;;;;;;;;;;;;;;;;2145755;59;2010;-69
2021/06/24 07:46:27;;;;;;;;;;;;;;;;;;2145747;59;1265;-72
2021/06/24 07:48:52;;;;;;;;;;;;;;;;;;2142063;59;1333;-72
2021/06/24 07:51:18;;;;;;;;;;;;;;;;;;2146363;66;1295;-70
2021/06/24 07:53:43;;;;;;;;;;;;;;;;;;2142738;66;1701;-72
2021/06/24 07:56:09;;;;;;;;;;;;;;;;;;2147142;66;1972;-71
2021/06/24 07:58:35;;;;;;;;;;;;;;;;;;2143494;59;1861;-69
2021/06/24 08:01:00;;;;;;;;;;;;;;;;;;2142791;59;2178;-69
2021/06/24 08:03:25;;;;;;;;;;;;;;;;;;2145803;66;1616;-71
2021/06/24 08:05:50;;;;;;;;;;;;;;;;;;2140009;59;2022;-70
2021/06/24 08:08:16;;;;;;;;;;;;;;;;;;2145569;58;1322;-71
2021/06/24 08:10:41;;;;;;;;;;;;;;;;;;2142033;59;2827;-70
2021/06/24 08:13:06;;;;;;;;;;;;;;;;;;2141900;58;3543;-69
2021/06/24 08:15:31;;;;;;;;;;;;;;;;;;2143443;59;1813;-70
2021/06/24 08:17:57;;;;;;;;;;;;;;;;;;2139618;59;1980;-69
2021/06/24 08:20:22;;;;;;;;;;;;;;;;;;2145526;66;1267;-70
2021/06/24 08:22:47;;;;;;;;;;;;;;;;;;2145223;66;1413;-70
2021/06/24 08:25:13;;;;;;;;;;;;;;;;;;2146747;59;1854;-67
2021/06/24 08:27:39;;;;;;;;;;;;;;;;;;2144409;59;2025;-68
2021/06/24 08:30:05;;;;;;;;;;;;;;;;;;2146688;66;1331;-71
2021/06/24 08:32:30;;;;;;;;;;;;;;;;;;2145994;66;1245;-70
2021/06/24 08:34:55;;;;;;;;;;;;;;;;;;2146133;66;1725;-70
2021/06/24 08:37:20;;;;;;;;;;;;;;;;;;2144627;59;1968;-70
2021/06/24 08:39:48;;;;;;;;;;;;;;;;;;2143430;59;1962;-71
2021/06/24 08:42:13;;;;;;;;;;;;;;;;;;2145401;66;1239;-70
2021/06/24 08:44:39;;;;;;;;;;;;;;;;;;2144903;66;1183;-71
2021/06/24 08:47:06;;;;;;;;;;;;;;;;;;2145233;59;1227;-71
2021/06/24 08:49:32;;;;;;;;;;;;;;;;;;2146101;66;1253;-67
2021/06/24 08:51:58;;;;;;;;;;;;;;;;;;2144860;66;1218;-69
2021/06/24 08:54:24;;;;;;;;;;;;;;;;;;2144599;66;1100;-70
2021/06/24 08:56:49;;;;;;;;;;;;;;;;;;2144822;66;1929;-71
2021/06/24 08:59:15;;;;;;;;;;;;;;;;;;2145325;66;1262;-70
2021/06/24 09:01:48;;;;;;;;;;;;;;;;;;2143925;59;1763;-71
2021/06/24 09:04:14;;;;;;;;;;;;;;;;;;2144867;59;1800;-71
2021/06/24 09:06:39;;;;;;;;;;;;;;;;;;2144246;66;1701;-70
2021/06/24 09:09:05;;;;;;;;;;;;;;;;;;2144028;66;1082;-68
2021/06/24 09:11:30;;;;;;;;;;;;;;;;;;2143786;59;2376;-71
2021/06/24 09:14:00;;;;;;;;;;;;;;;;;;2142246;59;2223;-70
2021/06/24 09:16:26;;;;;;;;;;;;;;;;;;2143397;59;1931;-71
2021/06/24 09:19:11;;;;;;;;;;;;;;;;;;2144882;59;1231;-70
2021/06/24 09:21:36;;;;;;;;;;;;;;;;;;2144052;59;1214;-66
2021/06/24 09:24:01;;;;;;;;;;;;;;;;;;2144955;66;1070;-68
2021/06/24 09:26:26;;;;;;;;;;;;;;;;;;2144641;66;1188;-70
2021/06/24 09:28:52;;;;;;;;;;;;;;;;;;2143204;59;1442;-69
2021/06/24 09:31:31;;;;;;;;;;;;;;;;;;2144037;66;2141;-68
2021/06/24 09:34:05;;;;;;;;;;;;;;;;;;2140369;59;2280;-70
2021/06/24 09:36:53;;;;;;;;;;;;;;;;;;2143778;66;1916;-70
2021/06/24 09:39:25;;;;;;;;;;;;;;;;;;2141332;59;2096;-70
2021/06/24 09:42:10;;;;;;;;;;;;;;;;;;2142506;59;1892;-70
2021/06/24 09:44:37;;;;;;;;;;;;;;;;;;2142790;59;1949;-68
2021/06/24 09:47:13;;;;;;;;;;;;;;;;;;2143540;66;1363;-69
2021/06/24 09:49:38;;;;;;;;;;;;;;;;;;2143921;66;1287;-70
2021/06/24 09:52:04;;;;;;;;;;;;;;;;;;2144369;66;1266;-71
2021/06/24 09:54:38;;;;;;;;;;;;;;;;;;2144082;66;1296;-70
2021/06/24 09:57:04;;;;;;;;;;;;;;;;;;2145784;66;1926;-70
2021/06/24 09:59:34;;;;;;;;;;;;;;;;;;2144342;59;1212;-70
2021/06/24 10:02:07;;;;;;;;;;;;;;;;;;2138367;59;2222;-70
2021/06/24 10:04:32;;;;;;;;;;;;;;;;;;2143846;61;1202;-70
2021/06/24 10:06:59;;;;;;;;;;;;;;;;;;2143604;59;1621;-70
2021/06/24 10:09:26;;;;;;;;;;;;;;;;;;2143632;59;1823;-69
2021/06/24 10:11:52;;;;;;;;;;;;;;;;;;2143212;59;2283;-69
2021/06/24 10:14:19;;;;;;;;;;;;;;;;;;2142752;59;2691;-69
2021/06/24 10:16:47;;;;;;;;;;;;;;;;;;2143092;59;1967;-71
2021/06/24 10:19:14;;;;;;;;;;;;;;;;;;2143059;59;1323;-71
2021/06/24 10:21:39;;;;;;;;;;;;;;;;;;2142227;67;2198;-71
2021/06/24 10:24:10;;;;;;;;;;;;;;;;;;2143995;59;1560;-71
2021/06/24 10:26:38;;;;;;;;;;;;;;;;;;2141326;59;1900;-70
2021/06/24 10:29:12;;;;;;;;;;;;;;;;;;2142854;59;1178;-70
2021/06/24 10:31:39;;;;;;;;;;;;;;;;;;2142962;59;1800;-71
2021/06/24 10:34:04;;;;;;;;;;;;;;;;;;2143671;66;1330;-71
2021/06/24 10:36:32;;;;;;;;;;;;;;;;;;2143937;66;1917;-72
2021/06/24 10:38:58;;;;;;;;;;;;;;;;;;2143579;59;1882;-72
2021/06/24 10:41:23;;;;;;;;;;;;;;;;;;2143078;67;1213;-71
2021/06/24 10:43:49;;;;;;;;;;;;;;;;;;2143179;66;1228;-71
2021/06/24 10:46:20;;;;;;;;;;;;;;;;;;2143802;66;1984;-69
2021/06/24 10:48:45;;;;;;;;;;;;;;;;;;2144060;59;1245;-70
2021/06/24 10:51:11;;;;;;;;;;;;;;;;;;2143908;67;1381;-70
2021/06/24 10:53:47;;;;;;;;;;;;;;;;;;2143526;66;1163;-70
2021/06/24 10:56:28;;;;;;;;;;;;;;;;;;2144850;66;1925;-69
2021/06/24 10:58:54;;;;;;;;;;;;;;;;;;2144155;66;1078;-71
2021/06/24 11:01:41;;;;;;;;;;;;;;;;;;2144130;66;1367;-70
2021/06/24 11:04:07;;;;;;;;;;;;;;;;;;2145461;66;1343;-71
2021/06/24 11:06:41;;;;;;;;;;;;;;;;;;2145016;66;1234;-70
2021/06/24 11:09:13;;;;;;;;;;;;;;;;;;2142984;66;1132;-69
2021/06/24 11:11:42;;;;;;;;;;;;;;;;;;2139062;59;1223;-69
2021/06/24 11:14:08;;;;;;;;;;;;;;;;;;2142524;59;2531;-69
2021/06/24 11:16:33;;;;;;;;;;;;;;;;;;2142097;59;2389;-70
2021/06/24 11:18:58;;;;;;;;;;;;;;;;;;2143561;66;1290;-71
2021/06/24 11:21:30;;;;;;;;;;;;;;;;;;2144200;66;1443;-71
2021/06/24 11:24:00;;;;;;;;;;;;;;;;;;2144369;66;1427;-69
2021/06/24 11:26:25;;;;;;;;;;;;;;;;;;2147097;66;1336;-70
2021/06/24 11:28:54;;;;;;;;;;;;;;;;;;2145693;66;1969;-70
2021/06/24 11:31:22;;;;;;;;;;;;;;;;;;2143934;66;1379;-68
2021/06/24 11:34:06;;;;;;;;;;;;;;;;;;2144219;66;1547;-71
2021/06/24 11:36:31;;;;;;;;;;;;;;;;;;2144020;66;1917;-71
2021/06/24 11:38:56;;;;;;;;;;;;;;;;;;2145139;59;1246;-72
2021/06/24 11:41:22;;;;;;;;;;;;;;;;;;2146516;66;1227;-70
2021/06/24 11:44:04;;;;;;;;;;;;;;;;;;2145397;66;1548;-70
2021/06/24 11:46:33;;;;;;;;;;;;;;;;;;2146550;66;1671;-70
2021/06/24 11:49:16;;;;;;;;;;;;;;;;;;2144105;66;1211;-71
2021/06/24 12:00:28;;;;;;;;;;;;;;;;;;2145526;59;1155;-71
2021/06/24 12:03:06;;;;;;;;;;;;;;;;;;2145492;58;1257;-71
2021/06/24 12:05:31;;;;;;;;;;;;;;;;;;2146509;66;1158;-70
2021/06/24 12:07:57;;;;;;;;;;;;;;;;;;2145334;59;1365;-70
2021/06/24 12:10:23;;;;;;;;;;;;;;;;;;2147244;59;1218;-70
2021/06/24 12:12:48;;;;;;;;;;;;;;;;;;2143637;59;1358;-70
2021/06/24 12:15:14;;;;;;;;;;;;;;;;;;2142104;58;2283;-71
2021/06/24 12:17:39;;;;;;;;;;;;;;;;;;2143674;63;2230;-69
2021/06/24 12:20:05;;;;;;;;;;;;;;;;;;2145295;66;1053;-69
2021/06/24 12:22:39;;;;;;;;;;;;;;;;;;2143675;66;1213;-71
2021/06/24 12:25:06;;;;;;;;;;;;;;;;;;2146399;59;2204;-71
2021/06/24 12:27:33;;;;;;;;;;;;;;;;;;2144939;66;1340;-71
2021/06/24 12:29:59;;;;;;;;;;;;;;;;;;2145235;66;1265;-71
2021/06/24 12:32:25;;;;;;;;;;;;;;;;;;2143853;59;1484;-70
2021/06/24 12:34:53;;;;;;;;;;;;;;;;;;2144786;66;1162;-70
2021/06/24 12:37:33;;;;;;;;;;;;;;;;;;2145389;66;1967;-71
2021/06/24 12:39:58;;;;;;;;;;;;;;;;;;2145959;66;1841;-70
2021/06/24 12:42:24;;;;;;;;;;;;;;;;;;2145882;59;1285;-70
2021/06/24 12:44:49;;;;;;;;;;;;;;;;;;2145099;66;1185;-71
2021/06/24 12:47:37;;;;;;;;;;;;;;;;;;2146952;59;1349;-69
2021/06/24 12:50:13;;;;;;;;;;;;;;;;;;2142567;66;1388;-70
2021/06/24 12:52:45;;;;;;;;;;;;;;;;;;2144837;66;1236;-70
2021/06/24 12:55:30;;;;;;;;;;;;;;;;;;2146318;66;1249;-70
2021/06/24 12:57:58;;;;;;;;;;;;;;;;;;2143534;59;2027;-70
2021/06/24 13:00:24;;;;;;;;;;;;;;;;;;2144490;66;1058;-70
2021/06/24 13:02:50;;;;;;;;;;;;;;;;;;2145048;66;1273;-69
2021/06/24 13:05:22;;;;;;;;;;;;;;;;;;2146780;66;1258;-70
2021/06/24 13:08:16;;;;;;;;;;;;;;;;;;2146228;66;1526;-70
2021/06/24 13:10:48;;;;;;;;;;;;;;;;;;2143492;66;1457;-71
2021/06/24 13:13:26;;;;;;;;;;;;;;;;;;2145396;58;2771;-70
2021/06/24 13:15:52;;;;;;;;;;;;;;;;;;2146574;59;1287;-70
2021/06/24 13:18:17;;;;;;;;;;;;;;;;;;2146528;66;1926;-70
2021/06/24 13:20:52;;;;;;;;;;;;;;;;;;2147634;59;1244;-69
2021/06/24 13:23:22;;;;;;;;;;;;;;;;;;2146101;66;1351;-70
2021/06/24 13:25:49;;;;;;;;;;;;;;;;;;2147325;66;1174;-70
2021/06/24 13:28:15;;;;;;;;;;;;;;;;;;2144407;66;1298;-69
2021/06/24 13:30:41;;;;;;;;;;;;;;;;;;2145531;59;1456;-70
2021/06/24 13:33:06;;;;;;;;;;;;;;;;;;2146283;66;1233;-70
2021/06/24 13:35:31;;;;;;;;;;;;;;;;;;2145632;66;1152;-71
2021/06/24 13:38:01;;;;;;;;;;;;;;;;;;2146956;66;1974;-70
2021/06/24 13:40:29;;;;;;;;;;;;;;;;;;2144909;66;1179;-71
2021/06/24 13:43:05;;;;;;;;;;;;;;;;;;2146408;59;1249;-70
2021/06/24 13:45:32;;;;;;;;;;;;;;;;;;2144586;66;1224;-70
2021/06/24 13:47:57;;;;;;;;;;;;;;;;;;2145015;66;1352;-70
2021/06/24 13:50:23;;;;;;;;;;;;;;;;;;2145899;66;1232;-70
2021/06/24 13:52:48;;;;;;;;;;;;;;;;;;2146732;66;1201;-70
2021/06/24 13:55:13;;;;;;;;;;;;;;;;;;2147115;66;1116;-69
2021/06/24 13:57:38;;;;;;;;;;;;;;;;;;2146670;66;2105;-70
2021/06/24 14:00:04;;;;;;;;;;;;;;;;;;2142046;66;1143;-69
2021/06/24 14:02:31;;;;;;;;;;;;;;;;;;2145914;66;1254;-69
2021/06/24 14:04:56;;;;;;;;;;;;;;;;;;2146343;59;1243;-69
2021/06/24 14:07:21;;;;;;;;;;;;;;;;;;2145912;59;1416;-70
2021/06/24 14:09:46;;;;;;;;;;;;;;;;;;2145350;66;1919;-69
2021/06/24 14:12:12;;;;;;;;;;;;;;;;;;2145489;59;1243;-69
2021/06/24 14:14:37;;;;;;;;;;;;;;;;;;2145316;59;1259;-70
2021/06/24 14:17:02;;;;;;;;;;;;;;;;;;2143321;59;2003;-70
2021/06/24 14:19:28;;;;;;;;;;;;;;;;;;2141990;66;1373;-69
2021/06/24 14:22:03;;;;;;;;;;;;;;;;;;2145742;66;1665;-69
2021/06/24 14:24:28;;;;;;;;;;;;;;;;;;2145392;66;1297;-69
2021/06/24 14:26:56;;;;;;;;;;;;;;;;;;2145599;66;1282;-69
2021/06/24 14:29:25;;;;;;;;;;;;;;;;;;2146243;66;1146;-69
2021/06/24 14:31:51;;;;;;;;;;;;;;;;;;2145719;66;1239;-69
2021/06/24 14:34:16;;;;;;;;;;;;;;;;;;2141199;59;2017;-69
2021/06/24 14:36:41;;;;;;;;;;;;;;;;;;2143333;59;1931;-69
2021/06/24 14:39:08;;;;;;;;;;;;;;;;;;2143668;66;1281;-70
2021/06/24 14:41:34;;;;;;;;;;;;;;;;;;2139179;67;1993;-71
2021/06/24 14:43:59;;;;;;;;;;;;;;;;;;2145028;66;1190;-71
2021/06/24 14:46:24;;;;;;;;;;;;;;;;;;2142819;60;2365;-72
2021/06/24 14:48:49;;;;;;;;;;;;;;;;;;2144619;66;2112;-71
2021/06/24 14:51:15;;;;;;;;;;;;;;;;;;2147187;66;1201;-71
2021/06/24 14:53:41;;;;;;;;;;;;;;;;;;2144329;59;1128;-72
2021/06/24 14:56:07;;;;;;;;;;;;;;;;;;2144347;59;1878;-72
2021/06/24 14:58:32;;;;;;;;;;;;;;;;;;2142196;59;2002;-71
2021/06/24 15:00:58;;;;;;;;;;;;;;;;;;2145786;66;1214;-69
2021/06/24 15:03:23;;;;;;;;;;;;;;;;;;2145586;66;1253;-69
2021/06/24 15:05:48;;;;;;;;;;;;;;;;;;2147644;59;1108;-68
2021/06/24 15:08:14;;;;;;;;;;;;;;;;;;2143598;59;1847;-69
2021/06/24 15:10:39;;;;;;;;;;;;;;;;;;2143919;66;1301;-69
2021/06/24 15:13:05;;;;;;;;;;;;;;;;;;2143105;59;1226;-69
2021/06/24 15:15:31;;;;;;;;;;;;;;;;;;2143566;59;1349;-69
2021/06/24 15:17:56;;;;;;;;;;;;;;;;;;2143563;59;1939;-69
2021/06/24 15:20:22;;;;;;;;;;;;;;;;;;2144538;66;1293;-70
2021/06/24 15:22:48;;;;;;;;;;;;;;;;;;2144543;59;1333;-69
2021/06/24 15:25:14;;;;;;;;;;;;;;;;;;2141100;59;1332;-70
2021/06/24 15:27:40;;;;;;;;;;;;;;;;;;2140979;66;1188;-70
2021/06/24 15:30:07;;;;;;;;;;;;;;;;;;2144890;59;1897;-71
2021/06/24 15:32:32;;;;;;;;;;;;;;;;;;2146100;66;1210;-72
2021/06/24 15:34:57;;;;;;;;;;;;;;;;;;2144214;66;1161;-69
2021/06/24 15:37:23;;;;;;;;;;;;;;;;;;2142355;66;1933;-68
2021/06/24 15:39:48;;;;;;;;;;;;;;;;;;2143538;59;1917;-69
2021/06/24 15:42:14;;;;;;;;;;;;;;;;;;2143599;66;1909;-69
2021/06/24 15:44:39;;;;;;;;;;;;;;;;;;2143647;59;1953;-69
2021/06/24 15:47:05;;;;;;;;;;;;;;;;;;2143263;59;2418;-69
2021/06/24 15:49:30;;;;;;;;;;;;;;;;;;2143637;66;1398;-69
2021/06/24 15:51:55;;;;;;;;;;;;;;;;;;2146201;66;1183;-69
2021/06/24 15:54:20;;;;;;;;;;;;;;;;;;2145624;66;1309;-69
2021/06/24 15:56:45;;;;;;;;;;;;;;;;;;2144352;59;1925;-69
2021/06/24 15:59:11;;;;;;;;;;;;;;;;;;2145294;66;1194;-69
2021/06/24 16:01:36;;;;;;;;;;;;;;;;;;2145585;66;1230;-69
2021/06/24 16:04:02;;;;;;;;;;;;;;;;;;2140949;59;1379;-69
2021/06/24 16:06:28;;;;;;;;;;;;;;;;;;2147216;66;1113;-69
2021/06/24 16:08:53;;;;;;;;;;;;;;;;;;2143561;59;1660;-69
2021/06/24 16:11:18;;;;;;;;;;;;;;;;;;2144813;59;1202;-69
2021/06/24 16:13:44;;;;;;;;;;;;;;;;;;2145838;59;1279;-69
2021/06/24 16:16:10;;;;;;;;;;;;;;;;;;2143010;59;1958;-69
2021/06/24 16:18:36;;;;;;;;;;;;;;;;;;2144536;59;1941;-69
2021/06/24 16:21:01;;;;;;;;;;;;;;;;;;2143850;66;1319;-69
2021/06/24 16:23:27;;;;;;;;;;;;;;;;;;2143785;66;1298;-69
2021/06/24 16:25:52;;;;;;;;;;;;;;;;;;2146876;66;1195;-69
2021/06/24 16:28:17;;;;;;;;;;;;;;;;;;2143724;66;1202;-69
2021/06/24 16:30:42;;;;;;;;;;;;;;;;;;2145335;66;1216;-69
2021/06/24 16:33:08;;;;;;;;;;;;;;;;;;2146578;66;1307;-69
2021/06/24 16:35:33;;;;;;;;;;;;;;;;;;2142934;66;1089;-69
2021/06/24 16:37:59;;;;;;;;;;;;;;;;;;2145837;66;1937;-67
2021/06/24 16:40:25;;;;;;;;;;;;;;;;;;2143855;66;1303;-68
2021/06/24 16:42:50;;;;;;;;;;;;;;;;;;2145978;66;1246;-70
2021/06/24 16:45:17;;;;;;;;;;;;;;;;;;2147324;66;1160;-68
2021/06/24 16:47:42;;;;;;;;;;;;;;;;;;2146291;58;1366;-68
2021/06/24 16:50:08;;;;;;;;;;;;;;;;;;2146700;59;1509;-68
2021/06/24 16:52:33;;;;;;;;;;;;;;;;;;2144657;66;1199;-68
2021/06/24 16:54:58;;;;;;;;;;;;;;;;;;2147100;66;1299;-70
2021/06/24 16:57:24;;;;;;;;;;;;;;;;;;2147033;66;1923;-70
2021/06/24 16:59:49;;;;;;;;;;;;;;;;;;2147080;61;1227;-69
2021/06/24 17:02:14;;;;;;;;;;;;;;;;;;2146450;59;1669;-70
2021/06/24 17:04:46;;;;;;;;;;;;;;;;;;2146902;66;1156;-69
2021/06/24 17:07:12;;;;;;;;;;;;;;;;;;2146926;66;1161;-69